sensor_id;sensor_type;location;lat;lon;timestamp;temperature;humidity
13616;DHT22;6879;51.368;6.782;2022-09-30T00:01:45;3.40;99.90
13616;DHT22;6879;51.368;6.782;2022-09-30T00:04:15;3.40;99.90
13616;DHT22;6879;51.368;6.782;2022-09-30T00:06:44;3.30;99.90
13616;DHT22;6879;51.368;6.782;2022-09-30T00:09:15;3.30;99.90
13616;DHT22;6879;51.368;6.782;2022-09-30T00:11:44;3.40;99.90
13616;DHT22;6879;51.368;6.782;2022-09-30T00:14:15;3.50;99.90
13616;DHT22;6879;51.368;6.782;2022-09-30T00:16:44;3.40;99.90
13616;DHT22;6879;51.368;6.782;2022-09-30T00:19:13;3.30;99.90
13616;DHT22;6879;51.368;6.782;2022-09-30T00:21:42;3.20;99.90
13616;DHT22;6879;51.368;6.782;2022-09-30T00:24:10;3.10;99.90
13616;DHT22;6879;51.368;6.782;2022-09-30T00:26:40;3.10;99.90
13616;DHT22;6879;51.368;6.782;2022-09-30T00:29:09;3.00;99.90
13616;DHT22;6879;51.368;6.782;2022-09-30T00:31:38;3.00;99.90
13616;DHT22;6879;51.368;6.782;2022-09-30T00:34:07;3.20;99.90
13616;DHT22;6879;51.368;6.782;2022-09-30T00:36:40;3.10;99.90
13616;DHT22;6879;51.368;6.782;2022-09-30T00:39:13;3.00;99.90
13616;DHT22;6879;51.368;6.782;2022-09-30T00:41:44;2.90;99.90
13616;DHT22;6879;51.368;6.782;2022-09-30T00:44:46;3.00;99.90
13616;DHT22;6879;51.368;6.782;2022-09-30T00:47:43;3.00;99.90
13616;DHT22;6879;51.368;6.782;2022-09-30T00:50:21;2.90;99.90
13616;DHT22;6879;51.368;6.782;2022-09-30T00:52:55;2.90;99.90
13616;DHT22;6879;51.368;6.782;2022-09-30T00:55:33;2.90;99.90
13616;DHT22;6879;51.368;6.782;2022-09-30T00:58:07;2.80;99.90
13616;DHT22;6879;51.368;6.782;2022-09-30T01:00:38;3.00;99.90
13616;DHT22;6879;51.368;6.782;2022-09-30T01:03:08;3.00;99.90
13616;DHT22;6879;51.368;6.782;2022-09-30T01:05:36;2.90;99.90
13616;DHT22;6879;51.368;6.782;2022-09-30T01:08:07;2.90;99.90
13616;DHT22;6879;51.368;6.782;2022-09-30T01:10:36;2.90;99.90
13616;DHT22;6879;51.368;6.782;2022-09-30T01:13:07;3.00;99.90
13616;DHT22;6879;51.368;6.782;2022-09-30T01:15:46;3.00;99.90
13616;DHT22;6879;51.368;6.782;2022-09-30T01:18:25;2.90;99.90
13616;DHT22;6879;51.368;6.782;2022-09-30T01:21:29;2.90;99.90
13616;DHT22;6879;51.368;6.782;2022-09-30T01:24:32;2.80;99.90
13616;DHT22;6879;51.368;6.782;2022-09-30T01:30:14;2.70;99.90
13616;DHT22;6879;51.368;6.782;2022-09-30T01:33:01;2.80;99.90
13616;DHT22;6879;51.368;6.782;2022-09-30T01:35:38;2.70;99.90
13616;DHT22;6879;51.368;6.782;2022-09-30T01:38:15;2.70;99.90
13616;DHT22;6879;51.368;6.782;2022-09-30T01:40:55;2.60;99.90
13616;DHT22;6879;51.368;6.782;2022-09-30T01:43:30;2.70;99.90
13616;DHT22;6879;51.368;6.782;2022-09-30T01:46:07;2.70;99.90
13616;DHT22;6879;51.368;6.782;2022-09-30T01:48:44;2.70;99.90
13616;DHT22;6879;51.368;6.782;2022-09-30T01:51:18;2.60;99.90
13616;DHT22;6879;51.368;6.782;2022-09-30T01:53:54;2.60;99.90
13616;DHT22;6879;51.368;6.782;2022-09-30T01:56:28;2.60;99.90
13616;DHT22;6879;51.368;6.782;2022-09-30T01:59:03;2.50;99.90
13616;DHT22;6879;51.368;6.782;2022-09-30T02:01:37;2.50;99.90
13616;DHT22;6879;51.368;6.782;2022-09-30T02:04:11;2.50;99.90
13616;DHT22;6879;51.368;6.782;2022-09-30T02:06:46;2.50;99.90
13616;DHT22;6879;51.368;6.782;2022-09-30T02:09:21;2.50;99.90
13616;DHT22;6879;51.368;6.782;2022-09-30T02:11:52;2.50;99.90
13616;DHT22;6879;51.368;6.782;2022-09-30T02:14:26;2.60;99.90
13616;DHT22;6879;51.368;6.782;2022-09-30T02:16:58;2.70;99.90
13616;DHT22;6879;51.368;6.782;2022-09-30T02:19:34;2.60;99.90
13616;DHT22;6879;51.368;6.782;2022-09-30T02:22:08;2.60;99.90
13616;DHT22;6879;51.368;6.782;2022-09-30T02:24:41;2.60;99.90
13616;DHT22;6879;51.368;6.782;2022-09-30T02:27:17;2.50;99.90
13616;DHT22;6879;51.368;6.782;2022-09-30T02:29:49;2.50;99.90
13616;DHT22;6879;51.368;6.782;2022-09-30T02:32:23;2.40;99.90
13616;DHT22;6879;51.368;6.782;2022-09-30T02:34:57;2.40;99.90
13616;DHT22;6879;51.368;6.782;2022-09-30T02:37:31;2.50;99.90
13616;DHT22;6879;51.368;6.782;2022-09-30T02:40:03;2.40;99.90
13616;DHT22;6879;51.368;6.782;2022-09-30T02:42:33;2.50;99.90
13616;DHT22;6879;51.368;6.782;2022-09-30T02:45:05;2.60;99.90
13616;DHT22;6879;51.368;6.782;2022-09-30T02:47:45;2.60;99.90
13616;DHT22;6879;51.368;6.782;2022-09-30T02:50:22;2.50;99.90
13616;DHT22;6879;51.368;6.782;2022-09-30T02:53:10;2.40;99.90
13616;DHT22;6879;51.368;6.782;2022-09-30T02:55:51;2.30;99.90
13616;DHT22;6879;51.368;6.782;2022-09-30T02:58:23;2.30;99.90
13616;DHT22;6879;51.368;6.782;2022-09-30T03:00:53;2.30;99.90
13616;DHT22;6879;51.368;6.782;2022-09-30T03:03:25;2.30;99.90
13616;DHT22;6879;51.368;6.782;2022-09-30T03:05:56;2.30;99.90
13616;DHT22;6879;51.368;6.782;2022-09-30T03:08:25;2.30;99.90
13616;DHT22;6879;51.368;6.782;2022-09-30T03:10:54;2.30;99.90
13616;DHT22;6879;51.368;6.782;2022-09-30T03:13:38;2.30;99.90
13616;DHT22;6879;51.368;6.782;2022-09-30T03:16:20;2.30;99.90
13616;DHT22;6879;51.368;6.782;2022-09-30T03:19:00;2.30;99.90
13616;DHT22;6879;51.368;6.782;2022-09-30T03:21:44;2.30;99.90
13616;DHT22;6879;51.368;6.782;2022-09-30T03:24:26;2.40;99.90
13616;DHT22;6879;51.368;6.782;2022-09-30T03:27:05;2.50;99.90
13616;DHT22;6879;51.368;6.782;2022-09-30T03:29:44;2.50;99.90
13616;DHT22;6879;51.368;6.782;2022-09-30T03:32:27;2.50;99.90
13616;DHT22;6879;51.368;6.782;2022-09-30T03:35:03;2.60;99.90
13616;DHT22;6879;51.368;6.782;2022-09-30T03:37:42;2.70;99.90
13616;DHT22;6879;51.368;6.782;2022-09-30T03:40:18;2.80;99.90
13616;DHT22;6879;51.368;6.782;2022-09-30T03:42:52;2.80;99.90
13616;DHT22;6879;51.368;6.782;2022-09-30T03:45:28;2.80;99.90
13616;DHT22;6879;51.368;6.782;2022-09-30T03:48:02;2.80;99.90
13616;DHT22;6879;51.368;6.782;2022-09-30T03:50:33;2.80;99.90
13616;DHT22;6879;51.368;6.782;2022-09-30T03:53:10;2.80;99.90
13616;DHT22;6879;51.368;6.782;2022-09-30T03:55:45;2.70;99.90
13616;DHT22;6879;51.368;6.782;2022-09-30T03:58:15;2.60;99.90
13616;DHT22;6879;51.368;6.782;2022-09-30T04:00:49;2.70;99.90
13616;DHT22;6879;51.368;6.782;2022-09-30T04:03:20;2.70;99.90
13616;DHT22;6879;51.368;6.782;2022-09-30T04:05:49;2.60;99.90
13616;DHT22;6879;51.368;6.782;2022-09-30T04:08:19;2.60;99.90
13616;DHT22;6879;51.368;6.782;2022-09-30T04:10:49;2.70;99.90
13616;DHT22;6879;51.368;6.782;2022-09-30T04:13:17;2.70;99.90
13616;DHT22;6879;51.368;6.782;2022-09-30T04:15:52;2.80;99.90
13616;DHT22;6879;51.368;6.782;2022-09-30T04:18:21;2.70;99.90
13616;DHT22;6879;51.368;6.782;2022-09-30T04:20:50;2.70;99.90
13616;DHT22;6879;51.368;6.782;2022-09-30T04:23:21;2.60;99.90
13616;DHT22;6879;51.368;6.782;2022-09-30T04:25:53;2.50;99.90
13616;DHT22;6879;51.368;6.782;2022-09-30T04:28:22;2.50;99.90
13616;DHT22;6879;51.368;6.782;2022-09-30T04:30:51;2.60;99.90
13616;DHT22;6879;51.368;6.782;2022-09-30T04:33:19;2.60;99.90
13616;DHT22;6879;51.368;6.782;2022-09-30T04:35:48;2.60;99.90
13616;DHT22;6879;51.368;6.782;2022-09-30T04:38:22;2.50;99.90
13616;DHT22;6879;51.368;6.782;2022-09-30T04:40:51;2.40;99.90
13616;DHT22;6879;51.368;6.782;2022-09-30T04:43:21;2.30;99.90
13616;DHT22;6879;51.368;6.782;2022-09-30T04:45:51;2.50;99.90
13616;DHT22;6879;51.368;6.782;2022-09-30T04:48:19;2.70;99.90
13616;DHT22;6879;51.368;6.782;2022-09-30T04:50:49;2.80;99.90
13616;DHT22;6879;51.368;6.782;2022-09-30T04:53:18;3.00;99.90
13616;DHT22;6879;51.368;6.782;2022-09-30T04:55:48;3.00;99.90
13616;DHT22;6879;51.368;6.782;2022-09-30T04:58:17;3.00;99.90
13616;DHT22;6879;51.368;6.782;2022-09-30T05:00:46;3.00;99.90
13616;DHT22;6879;51.368;6.782;2022-09-30T05:03:15;3.00;99.90
13616;DHT22;6879;51.368;6.782;2022-09-30T05:05:44;2.90;99.90
13616;DHT22;6879;51.368;6.782;2022-09-30T05:08:14;3.00;99.90
13616;DHT22;6879;51.368;6.782;2022-09-30T05:10:42;3.30;99.90
13616;DHT22;6879;51.368;6.782;2022-09-30T05:13:18;3.20;99.90
13616;DHT22;6879;51.368;6.782;2022-09-30T05:15:47;3.20;99.90
13616;DHT22;6879;51.368;6.782;2022-09-30T05:18:16;3.20;99.90
13616;DHT22;6879;51.368;6.782;2022-09-30T05:20:48;3.20;99.90
13616;DHT22;6879;51.368;6.782;2022-09-30T05:23:18;3.30;99.90
13616;DHT22;6879;51.368;6.782;2022-09-30T05:25:47;3.50;99.90
13616;DHT22;6879;51.368;6.782;2022-09-30T05:28:17;3.70;99.90
13616;DHT22;6879;51.368;6.782;2022-09-30T05:30:46;3.70;99.90
13616;DHT22;6879;51.368;6.782;2022-09-30T05:33:16;3.70;99.90
13616;DHT22;6879;51.368;6.782;2022-09-30T05:35:45;3.60;99.90
13616;DHT22;6879;51.368;6.782;2022-09-30T05:38:13;3.60;99.90
13616;DHT22;6879;51.368;6.782;2022-09-30T05:40:42;3.50;99.90
13616;DHT22;6879;51.368;6.782;2022-09-30T05:43:11;3.40;99.90
13616;DHT22;6879;51.368;6.782;2022-09-30T05:45:43;3.20;99.90
13616;DHT22;6879;51.368;6.782;2022-09-30T05:48:25;3.10;99.90
13616;DHT22;6879;51.368;6.782;2022-09-30T05:51:08;3.10;99.90
13616;DHT22;6879;51.368;6.782;2022-09-30T05:53:49;3.00;99.90
13616;DHT22;6879;51.368;6.782;2022-09-30T05:56:30;3.10;99.90
13616;DHT22;6879;51.368;6.782;2022-09-30T05:59:01;3.10;99.90
13616;DHT22;6879;51.368;6.782;2022-09-30T06:01:47;3.10;99.90
13616;DHT22;6879;51.368;6.782;2022-09-30T06:04:35;3.30;99.90
13616;DHT22;6879;51.368;6.782;2022-09-30T06:08:11;3.40;99.90
13616;DHT22;6879;51.368;6.782;2022-09-30T06:10:53;3.40;99.90
13616;DHT22;6879;51.368;6.782;2022-09-30T06:13:25;3.50;99.90
13616;DHT22;6879;51.368;6.782;2022-09-30T06:16:06;3.60;99.90
13616;DHT22;6879;51.368;6.782;2022-09-30T06:18:51;3.80;99.90
13616;DHT22;6879;51.368;6.782;2022-09-30T06:21:27;4.00;99.90
13616;DHT22;6879;51.368;6.782;2022-09-30T06:24:15;4.10;99.90
13616;DHT22;6879;51.368;6.782;2022-09-30T06:26:48;4.40;99.90
13616;DHT22;6879;51.368;6.782;2022-09-30T06:29:20;4.60;99.90
13616;DHT22;6879;51.368;6.782;2022-09-30T06:32:21;4.70;99.90
13616;DHT22;6879;51.368;6.782;2022-09-30T06:35:37;4.90;99.90
13616;DHT22;6879;51.368;6.782;2022-09-30T06:39:03;5.10;99.90
13616;DHT22;6879;51.368;6.782;2022-09-30T06:41:54;5.20;99.90
13616;DHT22;6879;51.368;6.782;2022-09-30T06:44:39;5.30;99.90
13616;DHT22;6879;51.368;6.782;2022-09-30T06:47:24;5.40;99.90
13616;DHT22;6879;51.368;6.782;2022-09-30T06:50:03;5.40;99.90
13616;DHT22;6879;51.368;6.782;2022-09-30T06:52:56;5.40;99.90
13616;DHT22;6879;51.368;6.782;2022-09-30T06:55:43;5.70;99.90
13616;DHT22;6879;51.368;6.782;2022-09-30T06:58:57;5.90;99.90
13616;DHT22;6879;51.368;6.782;2022-09-30T07:01:22;5.90;99.90
13616;DHT22;6879;51.368;6.782;2022-09-30T07:03:58;6.10;99.90
13616;DHT22;6879;51.368;6.782;2022-09-30T07:06:38;6.30;99.90
13616;DHT22;6879;51.368;6.782;2022-09-30T07:09:26;6.40;99.90
13616;DHT22;6879;51.368;6.782;2022-09-30T07:12:17;6.60;99.90
13616;DHT22;6879;51.368;6.782;2022-09-30T07:18:10;6.80;99.90
13616;DHT22;6879;51.368;6.782;2022-09-30T07:20:49;7.00;99.90
13616;DHT22;6879;51.368;6.782;2022-09-30T07:23:32;7.10;99.90
13616;DHT22;6879;51.368;6.782;2022-09-30T07:26:22;7.20;99.90
13616;DHT22;6879;51.368;6.782;2022-09-30T07:28:57;7.40;99.90
13616;DHT22;6879;51.368;6.782;2022-09-30T07:31:29;7.50;99.90
13616;DHT22;6879;51.368;6.782;2022-09-30T07:34:03;7.60;99.90
13616;DHT22;6879;51.368;6.782;2022-09-30T07:36:50;7.80;99.90
13616;DHT22;6879;51.368;6.782;2022-09-30T07:39:21;7.90;99.90
13616;DHT22;6879;51.368;6.782;2022-09-30T07:41:56;8.00;99.90
13616;DHT22;6879;51.368;6.782;2022-09-30T07:50:28;8.40;99.90
13616;DHT22;6879;51.368;6.782;2022-09-30T07:53:00;8.50;99.90
13616;DHT22;6879;51.368;6.782;2022-09-30T07:55:33;8.60;99.90
13616;DHT22;6879;51.368;6.782;2022-09-30T07:58:05;8.80;99.90
13616;DHT22;6879;51.368;6.782;2022-09-30T08:00:41;8.80;99.90
13616;DHT22;6879;51.368;6.782;2022-09-30T08:03:12;9.00;99.90
13616;DHT22;6879;51.368;6.782;2022-09-30T08:05:46;9.10;99.90
13616;DHT22;6879;51.368;6.782;2022-09-30T08:08:16;9.20;99.90
13616;DHT22;6879;51.368;6.782;2022-09-30T08:10:48;9.40;99.90
13616;DHT22;6879;51.368;6.782;2022-09-30T08:13:24;9.40;99.90
13616;DHT22;6879;51.368;6.782;2022-09-30T08:15:56;9.60;99.90
13616;DHT22;6879;51.368;6.782;2022-09-30T08:18:25;9.60;99.90
13616;DHT22;6879;51.368;6.782;2022-09-30T08:20:56;9.80;99.90
13616;DHT22;6879;51.368;6.782;2022-09-30T08:23:30;9.90;99.90
13616;DHT22;6879;51.368;6.782;2022-09-30T08:26:02;10.00;99.90
13616;DHT22;6879;51.368;6.782;2022-09-30T08:28:34;10.10;99.90
13616;DHT22;6879;51.368;6.782;2022-09-30T08:31:12;10.20;99.90
13616;DHT22;6879;51.368;6.782;2022-09-30T08:33:57;10.30;99.90
13616;DHT22;6879;51.368;6.782;2022-09-30T08:36:28;10.40;99.90
13616;DHT22;6879;51.368;6.782;2022-09-30T08:39:00;10.40;99.90
13616;DHT22;6879;51.368;6.782;2022-09-30T08:45:09;10.70;99.90
13616;DHT22;6879;51.368;6.782;2022-09-30T08:47:49;10.90;99.90
13616;DHT22;6879;51.368;6.782;2022-09-30T08:50:27;11.00;99.90
13616;DHT22;6879;51.368;6.782;2022-09-30T08:53:02;11.10;99.90
13616;DHT22;6879;51.368;6.782;2022-09-30T08:55:38;11.30;99.90
13616;DHT22;6879;51.368;6.782;2022-09-30T08:58:15;11.40;99.90
13616;DHT22;6879;51.368;6.782;2022-09-30T09:00:53;11.40;99.90
13616;DHT22;6879;51.368;6.782;2022-09-30T09:03:28;11.60;99.90
13616;DHT22;6879;51.368;6.782;2022-09-30T09:06:19;11.80;99.90
13616;DHT22;6879;51.368;6.782;2022-09-30T09:11:56;12.00;99.90
13616;DHT22;6879;51.368;6.782;2022-09-30T09:14:38;12.10;99.90
13616;DHT22;6879;51.368;6.782;2022-09-30T09:17:28;12.30;99.90
13616;DHT22;6879;51.368;6.782;2022-09-30T09:20:10;12.50;99.90
13616;DHT22;6879;51.368;6.782;2022-09-30T09:22:45;12.60;99.90
13616;DHT22;6879;51.368;6.782;2022-09-30T09:25:17;12.80;99.90
13616;DHT22;6879;51.368;6.782;2022-09-30T09:27:51;12.90;99.90
13616;DHT22;6879;51.368;6.782;2022-09-30T09:30:24;13.00;99.60
13616;DHT22;6879;51.368;6.782;2022-09-30T09:32:59;12.90;99.70
13616;DHT22;6879;51.368;6.782;2022-09-30T09:35:38;12.90;99.70
13616;DHT22;6879;51.368;6.782;2022-09-30T09:38:18;13.00;99.80
13616;DHT22;6879;51.368;6.782;2022-09-30T09:41:02;13.10;99.50
13616;DHT22;6879;51.368;6.782;2022-09-30T09:43:50;13.00;98.70
13616;DHT22;6879;51.368;6.782;2022-09-30T09:46:25;13.00;99.00
13616;DHT22;6879;51.368;6.782;2022-09-30T09:52:24;13.40;98.50
13616;DHT22;6879;51.368;6.782;2022-09-30T09:55:00;13.60;97.90
13616;DHT22;6879;51.368;6.782;2022-09-30T09:57:36;13.80;97.20
13616;DHT22;6879;51.368;6.782;2022-09-30T10:00:23;13.90;96.70
13616;DHT22;6879;51.368;6.782;2022-09-30T10:03:20;13.90;96.40
13616;DHT22;6879;51.368;6.782;2022-09-30T10:06:07;14.00;96.80
13616;DHT22;6879;51.368;6.782;2022-09-30T10:08:54;14.20;96.20
13616;DHT22;6879;51.368;6.782;2022-09-30T10:11:25;14.40;95.70
13616;DHT22;6879;51.368;6.782;2022-09-30T10:13:59;14.50;95.30
13616;DHT22;6879;51.368;6.782;2022-09-30T10:16:31;14.70;94.80
13616;DHT22;6879;51.368;6.782;2022-09-30T10:19:03;15.10;93.80
13616;DHT22;6879;51.368;6.782;2022-09-30T10:21:36;15.50;93.10
13616;DHT22;6879;51.368;6.782;2022-09-30T10:24:18;15.90;92.10
13616;DHT22;6879;51.368;6.782;2022-09-30T10:26:51;16.50;90.10
13616;DHT22;6879;51.368;6.782;2022-09-30T10:29:46;17.00;89.70
13616;DHT22;6879;51.368;6.782;2022-09-30T10:32:25;17.90;87.40
13616;DHT22;6879;51.368;6.782;2022-09-30T10:35:04;18.40;85.70
13616;DHT22;6879;51.368;6.782;2022-09-30T10:37:35;18.90;84.20
13616;DHT22;6879;51.368;6.782;2022-09-30T10:40:22;19.50;82.80
13616;DHT22;6879;51.368;6.782;2022-09-30T10:42:59;19.60;82.00
13616;DHT22;6879;51.368;6.782;2022-09-30T10:45:45;19.70;82.10
13616;DHT22;6879;51.368;6.782;2022-09-30T10:48:51;20.30;80.40
13616;DHT22;6879;51.368;6.782;2022-09-30T10:51:30;20.50;79.00
13616;DHT22;6879;51.368;6.782;2022-09-30T10:54:43;20.10;78.70
13616;DHT22;6879;51.368;6.782;2022-09-30T10:57:28;20.00;80.90
13616;DHT22;6879;51.368;6.782;2022-09-30T11:00:01;19.90;80.30
13616;DHT22;6879;51.368;6.782;2022-09-30T11:02:49;19.80;80.00
13616;DHT22;6879;51.368;6.782;2022-09-30T11:05:38;19.80;80.60
13616;DHT22;6879;51.368;6.782;2022-09-30T11:08:15;19.50;80.10
13616;DHT22;6879;51.368;6.782;2022-09-30T11:10:51;20.10;80.00
13616;DHT22;6879;51.368;6.782;2022-09-30T11:13:38;21.00;78.50
13616;DHT22;6879;51.368;6.782;2022-09-30T11:16:14;21.60;75.70
13616;DHT22;6879;51.368;6.782;2022-09-30T11:19:00;21.10;76.00
13616;DHT22;6879;51.368;6.782;2022-09-30T11:21:39;21.00;76.20
13616;DHT22;6879;51.368;6.782;2022-09-30T11:24:24;21.30;76.30
13616;DHT22;6879;51.368;6.782;2022-09-30T11:27:02;22.20;75.60
13616;DHT22;6879;51.368;6.782;2022-09-30T11:29:51;21.80;73.80
13616;DHT22;6879;51.368;6.782;2022-09-30T11:32:54;21.90;74.60
13616;DHT22;6879;51.368;6.782;2022-09-30T11:35:38;23.20;72.60
13616;DHT22;6879;51.368;6.782;2022-09-30T11:38:23;21.70;73.90
13616;DHT22;6879;51.368;6.782;2022-09-30T11:41:03;21.10;75.70
13616;DHT22;6879;51.368;6.782;2022-09-30T11:43:42;21.80;75.10
13616;DHT22;6879;51.368;6.782;2022-09-30T11:49:43;23.50;71.50
13616;DHT22;6879;51.368;6.782;2022-09-30T11:52:25;23.20;70.60
13616;DHT22;6879;51.368;6.782;2022-09-30T11:55:20;23.00;70.60
13616;DHT22;6879;51.368;6.782;2022-09-30T11:57:59;22.90;71.50
13616;DHT22;6879;51.368;6.782;2022-09-30T12:00:57;22.60;70.10
13616;DHT22;6879;51.368;6.782;2022-09-30T12:03:34;21.50;72.00
13616;DHT22;6879;51.368;6.782;2022-09-30T12:06:12;21.70;71.80
13616;DHT22;6879;51.368;6.782;2022-09-30T12:08:47;21.20;72.40
13616;DHT22;6879;51.368;6.782;2022-09-30T12:11:20;21.30;72.60
13616;DHT22;6879;51.368;6.782;2022-09-30T12:13:57;22.00;71.70
13616;DHT22;6879;51.368;6.782;2022-09-30T12:16:33;22.90;71.00
13616;DHT22;6879;51.368;6.782;2022-09-30T12:19:16;23.80;69.40
13616;DHT22;6879;51.368;6.782;2022-09-30T12:21:56;23.60;67.10
13616;DHT22;6879;51.368;6.782;2022-09-30T12:24:31;23.30;67.50
13616;DHT22;6879;51.368;6.782;2022-09-30T12:27:04;23.40;67.40
13616;DHT22;6879;51.368;6.782;2022-09-30T12:29:49;23.70;67.80
13616;DHT22;6879;51.368;6.782;2022-09-30T12:33:05;23.90;66.70
13616;DHT22;6879;51.368;6.782;2022-09-30T12:36:12;23.80;66.20
13616;DHT22;6879;51.368;6.782;2022-09-30T12:43:00;24.30;66.50
13616;DHT22;6879;51.368;6.782;2022-09-30T12:48:54;24.30;65.10
13616;DHT22;6879;51.368;6.782;2022-09-30T12:51:34;23.60;66.20
13616;DHT22;6879;51.368;6.782;2022-09-30T12:54:12;24.10;65.40
13616;DHT22;6879;51.368;6.782;2022-09-30T12:56:44;23.70;66.20
13616;DHT22;6879;51.368;6.782;2022-09-30T12:59:36;24.20;65.50
13616;DHT22;6879;51.368;6.782;2022-09-30T13:02:33;25.10;63.40
13616;DHT22;6879;51.368;6.782;2022-09-30T13:08:46;24.00;64.50
13616;DHT22;6879;51.368;6.782;2022-09-30T13:11:40;24.20;64.40
13616;DHT22;6879;51.368;6.782;2022-09-30T13:14:32;24.10;64.60
13616;DHT22;6879;51.368;6.782;2022-09-30T13:17:34;24.30;64.60
13616;DHT22;6879;51.368;6.782;2022-09-30T13:20:49;23.10;66.30
13616;DHT22;6879;51.368;6.782;2022-09-30T13:23:39;22.10;68.70
13616;DHT22;6879;51.368;6.782;2022-09-30T13:26:34;23.00;67.80
13616;DHT22;6879;51.368;6.782;2022-09-30T13:29:32;24.00;65.70
13616;DHT22;6879;51.368;6.782;2022-09-30T13:32:05;24.40;63.80
13616;DHT22;6879;51.368;6.782;2022-09-30T13:34:55;23.80;64.80
13616;DHT22;6879;51.368;6.782;2022-09-30T13:37:36;22.10;67.00
13616;DHT22;6879;51.368;6.782;2022-09-30T13:40:24;21.90;68.70
13616;DHT22;6879;51.368;6.782;2022-09-30T13:43:19;23.10;66.80
13616;DHT22;6879;51.368;6.782;2022-09-30T13:45:51;22.80;66.60
13616;DHT22;6879;51.368;6.782;2022-09-30T13:48:24;23.60;67.00
13616;DHT22;6879;51.368;6.782;2022-09-30T13:50:56;24.50;64.60
13616;DHT22;6879;51.368;6.782;2022-09-30T13:53:31;24.70;63.30
13616;DHT22;6879;51.368;6.782;2022-09-30T13:56:06;24.60;63.90
13616;DHT22;6879;51.368;6.782;2022-09-30T13:59:05;24.60;63.50
13616;DHT22;6879;51.368;6.782;2022-09-30T14:02:01;25.00;62.90
13616;DHT22;6879;51.368;6.782;2022-09-30T14:04:53;24.70;64.20
13616;DHT22;6879;51.368;6.782;2022-09-30T14:07:34;24.90;63.20
13616;DHT22;6879;51.368;6.782;2022-09-30T14:10:22;25.10;62.90
13616;DHT22;6879;51.368;6.782;2022-09-30T14:13:13;25.00;62.30
13616;DHT22;6879;51.368;6.782;2022-09-30T14:16:05;24.40;63.50
13616;DHT22;6879;51.368;6.782;2022-09-30T14:18:54;24.60;63.90
13616;DHT22;6879;51.368;6.782;2022-09-30T14:21:36;24.90;63.50
13616;DHT22;6879;51.368;6.782;2022-09-30T14:24:13;24.70;63.40
13616;DHT22;6879;51.368;6.782;2022-09-30T14:27:08;24.80;63.30
13616;DHT22;6879;51.368;6.782;2022-09-30T14:29:52;24.40;64.10
13616;DHT22;6879;51.368;6.782;2022-09-30T14:32:28;25.00;63.80
13616;DHT22;6879;51.368;6.782;2022-09-30T14:35:03;25.90;62.60
13616;DHT22;6879;51.368;6.782;2022-09-30T14:37:36;26.10;61.60
13616;DHT22;6879;51.368;6.782;2022-09-30T14:40:24;25.40;62.00
13616;DHT22;6879;51.368;6.782;2022-09-30T14:42:54;25.20;62.40
13616;DHT22;6879;51.368;6.782;2022-09-30T14:45:29;25.60;62.00
13616;DHT22;6879;51.368;6.782;2022-09-30T14:48:04;25.60;62.10
13616;DHT22;6879;51.368;6.782;2022-09-30T14:50:36;26.10;61.60
13616;DHT22;6879;51.368;6.782;2022-09-30T14:53:24;25.20;62.10
13616;DHT22;6879;51.368;6.782;2022-09-30T14:55:52;25.20;62.40
13616;DHT22;6879;51.368;6.782;2022-09-30T14:58:38;24.70;63.10
13616;DHT22;6879;51.368;6.782;2022-09-30T15:01:11;24.40;62.90
13616;DHT22;6879;51.368;6.782;2022-09-30T15:03:56;24.00;63.70
13616;DHT22;6879;51.368;6.782;2022-09-30T15:06:27;23.80;64.10
13616;DHT22;6879;51.368;6.782;2022-09-30T15:09:03;23.90;65.10
13616;DHT22;6879;51.368;6.782;2022-09-30T15:11:33;24.20;64.10
13616;DHT22;6879;51.368;6.782;2022-09-30T15:14:08;24.10;64.00
13616;DHT22;6879;51.368;6.782;2022-09-30T15:16:45;23.70;64.30
13616;DHT22;6879;51.368;6.782;2022-09-30T15:19:20;23.00;65.30
13616;DHT22;6879;51.368;6.782;2022-09-30T15:21:51;23.50;65.50
13616;DHT22;6879;51.368;6.782;2022-09-30T15:24:23;24.10;64.10
13616;DHT22;6879;51.368;6.782;2022-09-30T15:26:53;24.10;63.90
13616;DHT22;6879;51.368;6.782;2022-09-30T15:29:23;24.20;63.80
13616;DHT22;6879;51.368;6.782;2022-09-30T15:31:57;24.80;63.30
13616;DHT22;6879;51.368;6.782;2022-09-30T15:34:29;25.10;62.30
13616;DHT22;6879;51.368;6.782;2022-09-30T15:36:59;24.90;62.40
13616;DHT22;6879;51.368;6.782;2022-09-30T15:39:34;24.70;62.80
13616;DHT22;6879;51.368;6.782;2022-09-30T15:42:31;24.60;63.20
13616;DHT22;6879;51.368;6.782;2022-09-30T15:45:02;23.90;64.10
13616;DHT22;6879;51.368;6.782;2022-09-30T15:47:32;24.00;64.40
13616;DHT22;6879;51.368;6.782;2022-09-30T15:50:36;24.40;64.00
13616;DHT22;6879;51.368;6.782;2022-09-30T15:53:13;24.50;63.40
13616;DHT22;6879;51.368;6.782;2022-09-30T15:55:45;24.20;64.10
13616;DHT22;6879;51.368;6.782;2022-09-30T15:58:30;23.60;64.60
13616;DHT22;6879;51.368;6.782;2022-09-30T16:01:11;22.10;67.10
13616;DHT22;6879;51.368;6.782;2022-09-30T16:04:23;21.10;69.20
13616;DHT22;6879;51.368;6.782;2022-09-30T16:07:21;20.20;70.50
13616;DHT22;6879;51.368;6.782;2022-09-30T16:10:20;19.70;71.80
13616;DHT22;6879;51.368;6.782;2022-09-30T16:18:39;20.50;70.50
13616;DHT22;6879;51.368;6.782;2022-09-30T16:21:43;20.60;70.50
13616;DHT22;6879;51.368;6.782;2022-09-30T16:40:19;21.40;69.30
13616;DHT22;6879;51.368;6.782;2022-09-30T16:43:24;20.60;71.10
13616;DHT22;6879;51.368;6.782;2022-09-30T16:49:53;20.00;72.60
13616;DHT22;6879;51.368;6.782;2022-09-30T16:54:15;19.10;74.50
13616;DHT22;6879;51.368;6.782;2022-09-30T16:56:59;18.20;76.40
13616;DHT22;6879;51.368;6.782;2022-09-30T16:59:27;17.60;78.10
13616;DHT22;6879;51.368;6.782;2022-09-30T17:01:59;17.10;79.20
13616;DHT22;6879;51.368;6.782;2022-09-30T17:04:29;16.90;79.90
13616;DHT22;6879;51.368;6.782;2022-09-30T17:06:59;16.60;80.70
13616;DHT22;6879;51.368;6.782;2022-09-30T17:09:28;16.40;81.30
13616;DHT22;6879;51.368;6.782;2022-09-30T17:11:57;16.20;81.90
13616;DHT22;6879;51.368;6.782;2022-09-30T17:14:27;16.00;82.40
13616;DHT22;6879;51.368;6.782;2022-09-30T17:16:56;15.90;83.10
13616;DHT22;6879;51.368;6.782;2022-09-30T17:19:25;15.70;83.90
13616;DHT22;6879;51.368;6.782;2022-09-30T17:21:56;15.60;84.50
13616;DHT22;6879;51.368;6.782;2022-09-30T17:24:24;15.50;85.30
13616;DHT22;6879;51.368;6.782;2022-09-30T17:26:53;15.40;85.40
13616;DHT22;6879;51.368;6.782;2022-09-30T17:29:23;15.30;85.50
13616;DHT22;6879;51.368;6.782;2022-09-30T17:31:59;15.10;86.10
13616;DHT22;6879;51.368;6.782;2022-09-30T17:34:27;14.90;86.50
13616;DHT22;6879;51.368;6.782;2022-09-30T17:36:56;14.80;87.40
13616;DHT22;6879;51.368;6.782;2022-09-30T17:39:26;14.60;87.60
13616;DHT22;6879;51.368;6.782;2022-09-30T17:41:55;14.50;88.20
13616;DHT22;6879;51.368;6.782;2022-09-30T17:44:42;14.30;88.70
13616;DHT22;6879;51.368;6.782;2022-09-30T17:47:10;14.10;89.60
13616;DHT22;6879;51.368;6.782;2022-09-30T17:49:39;13.90;90.40
13616;DHT22;6879;51.368;6.782;2022-09-30T17:52:08;13.80;90.90
13616;DHT22;6879;51.368;6.782;2022-09-30T17:54:39;13.60;91.60
13616;DHT22;6879;51.368;6.782;2022-09-30T17:57:08;13.60;92.30
13616;DHT22;6879;51.368;6.782;2022-09-30T17:59:37;13.40;93.10
13616;DHT22;6879;51.368;6.782;2022-09-30T18:02:08;13.10;93.90
13616;DHT22;6879;51.368;6.782;2022-09-30T18:04:39;12.90;94.60
13616;DHT22;6879;51.368;6.782;2022-09-30T18:07:07;12.80;95.00
13616;DHT22;6879;51.368;6.782;2022-09-30T18:09:36;12.80;95.30